aviador You're here:

UKHH Decoded Metar

KHARKOV in UKRAINE
Report Time2018-04-23 22:30:00
UTC Time2018-04-23 22:48:29
Flight Rules vfr VFR
Wind150° at 4 kt
W.Decomp.*RWY 07: 1.2 kt HW 3.8 kt RCW
W.Rank150° ranks 29
Current wind is below 150° avg. (6.8)
Visibility9999 m
Phenomena:N/A
Clouds:N/A
Expected CloudBase > 3,200 ft AGL from Temp-Dew spread
CeilingNone
Temp02°C (ISA -12)
Dew Point-6°C (56% RH)
AAT-2.1°C
QNH1017 hPa
Density Alt-1,027 ft
Elevation509 ft
Report Wrong Elevation
Raw Report
UKHH 232230Z 15002MPS CAVOK 02/M06 Q1017 R07/0///66 NOSIG=

Extra information for UKHH:More info

Metar Taf Metar & Taf Last 4 Metars F.Rules Stats Wind Profile Meteogram Temp Stats Airport Information Weather charts Add Link Nearby VenuesMetar ALERT Operation Metar Decoded Social comments